Terminal Aerodrome Forecast
Issued by NWS

Home | Current Version | Previous Version | Text Only | Print | Product List | Glossary On
Versions: 1 2 3 4 5 6 7 8 9 10 11 12 13 14 15 16 17 18 19 20 21 22 23
000
FTUS42 KJAX 221100
TAFCRG
TAF
KCRG 221128Z 2212/2312 VRB03KT P6SM FEW030 SCT250
     FM221400 33004KT P6SM VCSH SCT030 SCT250
     FM221800 10008KT P6SM VCTS BKN035CB
      TEMPO 2219/2222 VRB15G30KT 3SM TSRA BKN030CB
     FM230000 15004KT P6SM SCT040=

USA.gov is the U.S. government's official web portal to all federal, state and local government web resources and services.